createdAt,value
2022-11-07T00:01:47.441Z,100055.19
2022-11-07T00:04:14.536Z,100054.38
2022-11-07T00:06:41.747Z,100052.72
2022-11-07T00:09:09.543Z,100054.38
2022-11-07T00:11:36.543Z,100056.03
2022-11-07T00:14:04.670Z,100051.06
2022-11-07T00:16:32.618Z,100061.97
2022-11-07T00:18:59.744Z,100072.06
2022-11-07T00:21:26.785Z,100061.13
2022-11-07T00:23:54.220Z,100063.94
2022-11-07T00:26:21.639Z,100069.25
2022-11-07T00:28:48.848Z,100069.88
2022-11-07T00:31:17.703Z,100078.00
2022-11-07T00:33:46.501Z,100079.50
2022-11-07T00:36:18.441Z,100072.69
2022-11-07T00:38:45.447Z,100076.69
2022-11-07T00:41:13.013Z,100069.09
2022-11-07T00:43:40.659Z,100078.66
2022-11-07T00:46:09.549Z,100081.47
2022-11-07T00:48:37.324Z,100079.66
2022-11-07T00:51:06.787Z,100081.63
2022-11-07T00:53:34.194Z,100079.66
2022-11-07T00:56:05.328Z,100081.63
2022-11-07T00:58:32.991Z,100081.13
2022-11-07T01:01:00.788Z,100082.31
2022-11-07T01:03:37.608Z,100087.94
2022-11-07T01:06:08.953Z,100082.13
2022-11-07T01:08:36.058Z,100080.50
2022-11-07T01:11:06.816Z,100086.44
2022-11-07T01:13:34.326Z,100090.72
2022-11-07T01:16:01.879Z,100095.19
2022-11-07T01:18:29.874Z,100092.72
2022-11-07T01:20:57.966Z,100095.84
2022-11-07T01:23:25.308Z,100090.25
2022-11-07T01:25:53.675Z,100081.31
2022-11-07T01:28:20.927Z,100093.38
2022-11-07T01:30:48.020Z,100091.22
2022-11-07T01:33:15.210Z,100083.97
2022-11-07T01:35:42.320Z,100081.81
2022-11-07T01:38:09.108Z,100083.81
2022-11-07T01:41:00.652Z,100087.44
2022-11-07T01:43:36.729Z,100073.72
2022-11-07T01:46:03.630Z,100081.66
2022-11-07T01:48:30.589Z,100089.59
2022-11-07T01:50:57.607Z,100085.13
2022-11-07T01:53:24.618Z,100086.28
2022-11-07T01:55:51.457Z,100082.66
2022-11-07T01:58:18.387Z,100090.56
2022-11-07T02:00:45.979Z,100085.28
2022-11-07T02:03:17.015Z,100088.44
2022-11-07T02:05:49.292Z,100090.41
2022-11-07T02:08:17.056Z,100087.91
2022-11-07T02:10:44.788Z,100085.47
2022-11-07T02:13:16.211Z,100096.69
2022-11-07T02:15:43.360Z,100086.63
2022-11-07T02:18:11.567Z,100096.19
2022-11-07T02:20:38.645Z,100088.91
2022-11-07T02:23:07.421Z,100098.47
2022-11-07T02:25:34.601Z,100104.44
2022-11-07T02:28:04.908Z,100109.22
2022-11-07T02:30:34.482Z,100103.94
2022-11-07T02:33:02.847Z,100103.09
2022-11-07T02:35:36.804Z,100105.06
2022-11-07T02:38:06.430Z,100116.28
2022-11-07T02:40:34.021Z,100113.00
2022-11-07T02:43:01.348Z,100113.34
2022-11-07T02:45:31.465Z,100111.66
2022-11-07T02:47:58.646Z,100103.59
2022-11-07T02:50:26.219Z,100117.63
2022-11-07T02:52:53.621Z,100126.06
2022-11-07T02:55:20.622Z,100121.91
2022-11-07T02:57:48.247Z,100114.66
2022-11-07T03:00:16.447Z,100114.66
2022-11-07T03:02:47.656Z,100113.00
2022-11-07T03:05:17.546Z,100113.84
2022-11-07T03:07:46.289Z,100111.66
2022-11-07T03:10:14.628Z,100105.22
2022-11-07T03:12:42.592Z,100107.22
2022-11-07T03:15:11.366Z,100106.69
2022-11-07T03:17:38.407Z,100104.72
2022-11-07T03:20:06.644Z,100108.19
2022-11-07T03:22:33.932Z,100107.00
2022-11-07T03:25:00.806Z,100108.19
2022-11-07T03:27:27.968Z,100116.06
2022-11-07T03:29:54.986Z,100117.75
2022-11-07T03:32:23.207Z,100115.75
2022-11-07T03:34:50.258Z,100113.28
2022-11-07T03:37:17.929Z,100114.41
2022-11-07T03:39:44.865Z,100123.97
2022-11-07T03:42:12.156Z,100121.19
2022-11-07T03:44:39.553Z,100118.72
2022-11-07T03:47:06.826Z,100124.31
2022-11-07T03:49:34.245Z,100118.72
2022-11-07T03:52:02.805Z,100119.03
2022-11-07T03:54:30.903Z,100116.22
2022-11-07T03:56:59.411Z,100123.81
2022-11-07T03:59:26.509Z,100122.97
2022-11-07T04:01:54.060Z,100129.78
2022-11-07T04:04:22.280Z,100121.66
2022-11-07T04:06:50.751Z,100123.66
2022-11-07T04:09:19.379Z,100125.63
2022-11-07T04:11:59.156Z,100119.19
2022-11-07T04:14:37.632Z,100119.19
2022-11-07T04:17:19.239Z,100123.13
2022-11-07T04:19:47.476Z,100114.72
2022-11-07T04:22:15.728Z,100118.69
2022-11-07T04:24:46.120Z,100113.09
2022-11-07T04:27:23.529Z,100117.88
2022-11-07T04:29:51.481Z,100112.56
2022-11-07T04:32:18.732Z,100112.56
2022-11-07T04:34:46.291Z,100116.53
2022-11-07T04:37:16.065Z,100114.38
2022-11-07T04:39:43.433Z,100114.06
2022-11-07T04:42:10.860Z,100116.03
2022-11-07T04:44:38.850Z,100114.38
2022-11-07T04:47:05.908Z,100111.59
2022-11-07T04:49:33.767Z,100114.69
2022-11-07T04:52:00.733Z,100118.34
2022-11-07T04:54:28.540Z,100122.28
2022-11-07T04:56:55.647Z,100115.88
2022-11-07T04:59:22.603Z,100117.84
2022-11-07T05:01:50.290Z,100115.03
2022-11-07T05:04:17.344Z,100115.34
2022-11-07T05:06:44.889Z,100124.91
2022-11-07T05:09:16.960Z,100120.13
2022-11-07T05:11:45.191Z,100125.75
2022-11-07T05:14:14.004Z,100123.25
2022-11-07T05:16:43.280Z,100129.69
2022-11-07T05:19:16.993Z,100140.91
2022-11-07T05:21:44.664Z,100129.69
2022-11-07T05:24:11.885Z,100128.06
2022-11-07T05:26:40.115Z,100130.88
2022-11-07T05:29:09.560Z,100119.66
2022-11-07T05:31:37.513Z,100129.38
2022-11-07T05:34:04.603Z,100121.97
2022-11-07T05:36:31.599Z,100120.81
2022-11-07T05:38:58.764Z,100128.56
2022-11-07T05:41:25.727Z,100119.53
2022-11-07T05:43:52.764Z,100119.69
2022-11-07T05:46:19.748Z,100126.31
2022-11-07T05:48:46.766Z,100134.56
2022-11-07T05:51:13.811Z,100122.38
2022-11-07T05:53:40.733Z,100125.06
2022-11-07T05:56:07.673Z,100126.88
2022-11-07T05:58:34.724Z,100126.72
2022-11-07T06:01:03.515Z,100120.13
2022-11-07T06:03:30.705Z,100116.34
2022-11-07T06:05:57.823Z,100104.13
2022-11-07T06:08:24.752Z,100117.16
2022-11-07T06:10:51.680Z,100114.16
2022-11-07T06:13:19.018Z,100111.56
2022-11-07T06:15:46.380Z,100117.81
2022-11-07T06:18:14.983Z,100124.09
2022-11-07T06:20:42.124Z,100119.47
2022-11-07T06:23:09.271Z,100124.09
2022-11-07T06:25:36.525Z,100129.53
2022-11-07T06:28:05.983Z,100126.56
2022-11-07T06:30:33.305Z,100130.03
2022-11-07T06:33:01.659Z,100130.19
2022-11-07T06:35:28.932Z,100130.06
2022-11-07T06:37:55.946Z,100129.88
2022-11-07T06:40:22.912Z,100130.03
2022-11-07T06:42:49.812Z,100131.00
2022-11-07T06:45:16.945Z,100130.34
2022-11-07T06:47:43.985Z,100136.13
2022-11-07T06:50:10.975Z,100142.75
2022-11-07T06:52:38.065Z,100149.66
2022-11-07T06:55:05.249Z,100146.22
2022-11-07T06:57:32.160Z,100143.88
2022-11-07T06:59:59.971Z,100145.22
2022-11-07T07:02:52.180Z,100138.41
2022-11-07T07:05:18.442Z,100139.22
2022-11-07T07:07:47.812Z,100142.53
2022-11-07T07:10:15.221Z,100140.22
2022-11-07T07:12:42.452Z,100148.63
2022-11-07T07:15:09.512Z,100150.44
2022-11-07T07:17:36.500Z,100158.88
2022-11-07T07:20:04.802Z,100158.88
2022-11-07T07:22:31.905Z,100164.50
2022-11-07T07:24:58.833Z,100175.75
2022-11-07T07:27:25.753Z,100170.94
2022-11-07T07:29:53.901Z,100177.41
2022-11-07T07:32:21.734Z,100177.41
2022-11-07T07:34:48.653Z,100175.41
2022-11-07T07:37:15.693Z,100179.38
2022-11-07T07:39:42.726Z,100172.94
2022-11-07T07:42:09.670Z,100182.19
2022-11-07T07:44:36.915Z,100186.16
2022-11-07T07:47:08.353Z,100184.53
2022-11-07T07:49:38.045Z,100188.97
2022-11-07T07:52:05.968Z,100181.72
2022-11-07T07:54:32.911Z,100191.78
2022-11-07T07:57:01.775Z,100187.66
2022-11-07T07:59:28.714Z,100185.69
2022-11-07T08:01:57.331Z,100188.81
2022-11-07T08:04:24.592Z,100194.13
2022-11-07T08:06:51.565Z,100196.75
2022-11-07T08:09:18.605Z,100198.56
2022-11-07T08:11:45.637Z,100196.91
2022-11-07T08:14:12.904Z,100200.56
2022-11-07T08:16:39.846Z,100199.72
2022-11-07T08:19:06.824Z,100204.19
2022-11-07T08:21:34.384Z,100191.28
2022-11-07T08:24:03.685Z,100198.56
2022-11-07T08:26:31.677Z,100191.78
2022-11-07T08:28:58.664Z,100195.06
2022-11-07T08:31:29.648Z,100192.25
2022-11-07T08:33:58.581Z,100197.06
2022-11-07T08:36:26.405Z,100201.03
2022-11-07T08:38:53.746Z,100195.41
2022-11-07T08:41:22.526Z,100194.25
2022-11-07T08:43:50.211Z,100197.06
2022-11-07T08:46:17.646Z,100195.41
2022-11-07T08:48:44.647Z,100193.78
2022-11-07T08:51:13.365Z,100199.41
2022-11-07T08:53:40.352Z,100193.78
2022-11-07T08:56:08.794Z,100195.75
2022-11-07T08:58:38.070Z,100200.22
2022-11-07T09:01:07.366Z,100197.06
2022-11-07T09:03:48.873Z,100197.22
2022-11-07T09:06:32.247Z,100205.66
2022-11-07T09:09:00.989Z,100196.44
2022-11-07T09:11:28.424Z,100198.44
2022-11-07T09:13:55.960Z,100192.66
2022-11-07T09:16:23.326Z,100194.50
2022-11-07T09:18:51.443Z,100194.50
2022-11-07T09:21:22.490Z,100182.59
2022-11-07T09:23:53.414Z,100193.97
2022-11-07T09:26:20.915Z,100198.44
2022-11-07T09:28:52.945Z,100199.94
2022-11-07T09:31:35.861Z,100191.00
2022-11-07T09:35:06.993Z,100200.59
2022-11-07T09:37:39.581Z,100196.97
2022-11-07T09:40:08.258Z,100189.03
2022-11-07T09:43:11.648Z,100199.13
2022-11-07T09:52:14.674Z,100208.84
2022-11-07T09:54:46.882Z,100208.03
2022-11-07T09:57:15.924Z,100210.00
2022-11-07T09:59:45.595Z,100215.31
2022-11-07T10:02:15.187Z,100207.03
2022-11-07T10:04:42.425Z,100215.16
2022-11-07T10:07:21.763Z,100215.31
2022-11-07T10:09:55.488Z,100216.28
2022-11-07T10:12:34.264Z,100221.25
2022-11-07T10:15:24.106Z,100218.94
2022-11-07T10:18:09.281Z,100225.88
2022-11-07T10:20:38.616Z,100228.03
2022-11-07T10:23:08.431Z,100228.53
2022-11-07T10:25:37.932Z,100223.72
2022-11-07T10:28:07.423Z,100225.88
2022-11-07T10:30:34.615Z,100225.50
2022-11-07T10:33:01.194Z,100228.00
2022-11-07T10:35:31.904Z,100226.84
2022-11-07T10:38:00.742Z,100220.06
2022-11-07T10:40:31.988Z,100225.69
2022-11-07T10:42:58.569Z,100226.53
2022-11-07T10:45:26.239Z,100218.09
2022-11-07T10:48:03.840Z,100229.00
2022-11-07T10:50:30.904Z,100221.72
2022-11-07T10:52:58.928Z,100232.16
2022-11-07T10:55:26.773Z,100230.13
2022-11-07T10:57:59.836Z,100224.03
2022-11-07T11:00:27.981Z,100213.28
2022-11-07T11:02:56.421Z,100217.28
2022-11-07T11:05:25.041Z,100212.78
2022-11-07T11:07:52.548Z,100212.28
2022-11-07T11:10:21.102Z,100210.00
2022-11-07T11:12:48.355Z,100213.94
2022-11-07T11:15:23.041Z,100208.66
2022-11-07T11:17:58.486Z,100205.84
2022-11-07T11:20:33.722Z,100205.03
2022-11-07T11:23:01.487Z,100212.28
2022-11-07T11:25:28.201Z,100195.78
2022-11-07T11:27:57.472Z,100195.44
2022-11-07T11:30:24.234Z,100195.94
2022-11-07T11:33:02.475Z,100198.59
2022-11-07T11:35:32.135Z,100194.94
2022-11-07T11:38:11.732Z,100186.00
2022-11-07T11:40:40.820Z,100177.56
2022-11-07T11:43:22.077Z,100169.16
2022-11-07T11:46:00.878Z,100165.03
2022-11-07T11:48:34.303Z,100178.25
2022-11-07T11:51:06.604Z,100180.25
2022-11-07T11:53:33.348Z,100186.19
2022-11-07T11:56:21.586Z,100176.59
2022-11-07T11:58:54.639Z,100180.56
2022-11-07T12:01:21.339Z,100172.97
2022-11-07T12:04:14.422Z,100185.34
2022-11-07T12:06:44.551Z,100182.38
2022-11-07T12:09:20.454Z,100179.59
2022-11-07T12:12:00.134Z,100178.28
2022-11-07T12:14:37.398Z,100180.25
2022-11-07T12:17:10.277Z,100181.72
2022-11-07T12:19:46.708Z,100172.50
2022-11-07T12:22:39.524Z,100174.13
2022-11-07T12:25:15.490Z,100190.84
2022-11-07T12:27:44.877Z,100189.19
2022-11-07T12:30:14.552Z,100197.97
2022-11-07T12:33:01.492Z,100192.66
2022-11-07T12:35:35.950Z,100191.34
2022-11-07T12:38:21.222Z,100181.28
2022-11-07T12:41:06.655Z,100185.22
2022-11-07T12:43:47.932Z,100180.75
2022-11-07T12:46:27.114Z,100173.84
2022-11-07T12:49:05.041Z,100179.94
2022-11-07T12:51:48.530Z,100182.25
2022-11-07T12:54:35.379Z,100182.59
2022-11-07T12:57:04.650Z,100180.09
2022-11-07T12:59:36.672Z,100180.63
2022-11-07T13:02:11.799Z,100188.53
2022-11-07T13:04:45.453Z,100191.53
2022-11-07T13:07:12.023Z,100184.41
2022-11-07T13:09:49.329Z,100200.13
2022-11-07T13:12:34.755Z,100200.59
2022-11-07T13:15:03.170Z,100188.22
2022-11-07T13:17:39.021Z,100185.41
2022-11-07T13:20:21.052Z,100207.19
2022-11-07T13:22:49.109Z,100198.44
2022-11-07T13:25:16.941Z,100187.72
2022-11-07T13:27:45.601Z,100184.91
2022-11-07T13:30:12.183Z,100180.59
2022-11-07T13:32:42.713Z,100181.94
2022-11-07T13:35:10.743Z,100181.25
2022-11-07T13:37:41.322Z,100172.50
2022-11-07T13:40:13.911Z,100175.47
2022-11-07T13:42:42.690Z,100172.31
2022-11-07T13:45:29.750Z,100172.13
2022-11-07T13:47:58.198Z,100175.44
2022-11-07T13:50:32.702Z,100165.50
2022-11-07T13:53:07.216Z,100166.84
2022-11-07T13:56:12.213Z,100167.00
2022-11-07T13:58:39.609Z,100167.50
2022-11-07T14:01:10.495Z,100167.13
2022-11-07T14:03:37.353Z,100164.81
2022-11-07T14:06:04.464Z,100160.88
2022-11-07T14:08:35.831Z,100157.69
2022-11-07T14:11:03.129Z,100156.22
2022-11-07T14:13:41.175Z,100178.34
2022-11-07T14:16:17.469Z,100167.94
2022-11-07T14:19:04.675Z,100171.25
2022-11-07T14:21:49.879Z,100165.63
2022-11-07T14:24:20.977Z,100175.72
2022-11-07T14:26:57.623Z,100171.72
2022-11-07T14:29:24.623Z,100172.22
2022-11-07T14:31:52.025Z,100177.34
2022-11-07T14:34:18.990Z,100175.38
2022-11-07T14:36:53.604Z,100167.75
2022-11-07T14:39:21.011Z,100162.13
2022-11-07T14:41:48.852Z,100172.22
2022-11-07T14:44:36.434Z,100178.69
2022-11-07T14:47:16.211Z,100173.38
2022-11-07T14:49:47.179Z,100171.72
2022-11-07T14:52:19.085Z,100175.38
2022-11-07T14:54:46.848Z,100170.91
2022-11-07T14:57:14.183Z,100162.47
2022-11-07T14:59:41.332Z,100170.91
2022-11-07T15:02:10.944Z,100161.16
2022-11-07T15:04:39.843Z,100150.25
2022-11-07T15:07:10.559Z,100149.91
2022-11-07T15:09:37.220Z,100156.69
2022-11-07T15:12:07.368Z,100160.66
2022-11-07T15:14:35.855Z,100165.47
2022-11-07T15:17:06.115Z,100173.09
2022-11-07T15:19:34.771Z,100160.66
2022-11-07T15:22:07.215Z,100150.09
2022-11-07T15:24:41.445Z,100153.41
2022-11-07T15:27:13.943Z,100152.56
2022-11-07T15:29:50.458Z,100139.66
2022-11-07T15:32:18.690Z,100147.28
2022-11-07T15:35:03.786Z,100141.66
2022-11-07T15:37:32.295Z,100134.38
2022-11-07T15:39:58.965Z,100133.22
2022-11-07T15:42:25.653Z,100131.56
2022-11-07T15:44:52.494Z,100132.75
2022-11-07T15:47:20.378Z,100140.34
2022-11-07T15:49:47.424Z,100125.47
2022-11-07T15:52:14.615Z,100128.59
2022-11-07T15:54:41.255Z,100118.50
2022-11-07T15:57:08.655Z,100137.38
2022-11-07T15:59:36.729Z,100129.28
2022-11-07T16:02:03.913Z,100138.56
2022-11-07T16:04:30.738Z,100146.16
2022-11-07T16:06:57.453Z,100156.91
2022-11-07T16:09:25.138Z,100155.25
2022-11-07T16:11:51.964Z,100148.81
2022-11-07T16:14:42.979Z,100155.91
2022-11-07T16:17:06.433Z,100156.75
2022-11-07T16:19:33.155Z,100149.00
2022-11-07T16:22:01.261Z,100151.31
2022-11-07T16:24:28.606Z,100152.13
2022-11-07T16:26:58.645Z,100148.50
2022-11-07T16:29:25.529Z,100152.44
2022-11-07T16:31:52.405Z,100146.34
2022-11-07T16:34:21.989Z,100146.34
2022-11-07T16:36:49.084Z,100145.84
2022-11-07T16:39:21.093Z,100144.19
2022-11-07T16:41:50.722Z,100140.41
2022-11-07T16:44:23.247Z,100129.16
2022-11-07T16:46:54.348Z,100138.78
2022-11-07T16:49:31.389Z,100143.06
2022-11-07T16:51:58.190Z,100143.38
2022-11-07T16:54:25.109Z,100141.75
2022-11-07T16:56:53.056Z,100144.91
2022-11-07T16:59:22.574Z,100144.06
2022-11-07T17:01:50.154Z,100145.56
2022-11-07T17:04:17.042Z,100138.63
2022-11-07T17:06:47.533Z,100148.19
2022-11-07T17:09:19.449Z,100130.88
2022-11-07T17:11:46.189Z,100129.53
2022-11-07T17:14:12.856Z,100138.31
2022-11-07T17:16:48.488Z,100132.19
2022-11-07T17:19:15.732Z,100124.91
2022-11-07T17:21:48.592Z,100131.72
2022-11-07T17:24:15.142Z,100139.31
2022-11-07T17:26:41.752Z,100123.94
2022-11-07T17:29:13.314Z,100120.25
2022-11-07T17:31:41.470Z,100113.00
2022-11-07T17:34:08.174Z,100113.66
2022-11-07T17:36:37.860Z,100107.56
2022-11-07T17:39:06.237Z,100119.94
2022-11-07T17:41:39.712Z,100091.34
2022-11-07T17:44:06.729Z,100090.56
2022-11-07T17:46:34.244Z,100104.09
2022-11-07T17:49:02.269Z,100090.38
2022-11-07T17:51:37.342Z,100085.09
2022-11-07T17:54:04.490Z,100089.91
2022-11-07T17:56:31.883Z,100098.97
2022-11-07T17:59:00.093Z,100095.38
2022-11-07T18:01:28.059Z,100098.81
2022-11-07T18:03:55.205Z,100091.53
2022-11-07T18:06:23.628Z,100079.00
2022-11-07T18:08:52.702Z,100084.63
2022-11-07T18:11:20.285Z,100079.31
2022-11-07T18:13:49.772Z,100082.13
2022-11-07T18:16:21.894Z,100080.00
2022-11-07T18:18:48.557Z,100078.34
2022-11-07T18:21:15.297Z,100076.69
2022-11-07T18:23:43.412Z,100063.81
2022-11-07T18:26:11.433Z,100068.09
2022-11-07T18:28:38.946Z,100064.47
2022-11-07T18:31:07.316Z,100058.38
2022-11-07T18:33:33.963Z,100058.69
2022-11-07T18:36:01.281Z,100053.91
2022-11-07T18:38:28.488Z,100067.47
2022-11-07T18:41:00.152Z,100061.84
2022-11-07T18:43:26.828Z,100059.38
2022-11-07T18:45:54.871Z,100086.09
2022-11-07T18:48:22.894Z,100088.13
2022-11-07T18:50:49.540Z,100073.56
2022-11-07T18:53:16.796Z,100078.34
2022-11-07T18:55:43.612Z,100080.34
2022-11-07T18:58:10.273Z,100066.66
2022-11-07T19:00:37.672Z,100074.25
2022-11-07T19:03:04.364Z,100059.84
2022-11-07T19:05:30.974Z,100069.94
2022-11-07T19:07:57.547Z,100063.31
2022-11-07T19:10:24.127Z,100065.47
2022-11-07T19:12:54.604Z,100060.69
2022-11-07T19:15:25.258Z,100057.53
2022-11-07T19:17:51.915Z,100066.13
2022-11-07T19:20:23.805Z,100055.41
2022-11-07T19:22:50.392Z,100057.53
2022-11-07T19:25:19.054Z,100056.84
2022-11-07T19:27:49.262Z,100053.72
2022-11-07T19:30:15.955Z,100063.47
2022-11-07T19:32:42.896Z,100047.13
2022-11-07T19:35:09.897Z,100050.44
2022-11-07T19:37:36.779Z,100056.53
2022-11-07T19:40:03.459Z,100040.50
2022-11-07T19:45:05.624Z,100037.00
2022-11-07T19:47:32.780Z,100038.34
2022-11-07T19:50:04.984Z,100041.97
2022-11-07T19:52:31.579Z,100029.56
2022-11-07T19:54:58.185Z,100033.19
2022-11-07T19:57:25.053Z,100030.06
2022-11-07T19:59:52.197Z,100026.94
2022-11-07T20:02:32.337Z,100019.34
2022-11-07T20:05:01.098Z,100022.94
2022-11-07T20:07:27.673Z,100021.78
2022-11-07T20:09:55.216Z,100015.84
2022-11-07T20:12:21.919Z,100020.31
2022-11-07T20:14:48.488Z,100002.28
2022-11-07T20:17:15.194Z,100003.97
2022-11-07T20:19:41.905Z,100010.41
2022-11-07T20:22:08.578Z,99995.22
2022-11-07T20:24:35.204Z,100004.78
2022-11-07T20:27:01.834Z,100002.00
2022-11-07T20:29:28.804Z,100005.63
2022-11-07T20:31:56.615Z,99999.69
2022-11-07T20:34:23.578Z,100000.34
2022-11-07T20:36:53.974Z,100008.75
2022-11-07T20:39:20.626Z,99999.47
2022-11-07T20:41:49.086Z,99993.56
2022-11-07T20:44:16.009Z,99989.09
2022-11-07T20:46:43.986Z,99996.69
2022-11-07T20:49:19.834Z,99999.19
2022-11-07T20:51:46.428Z,99996.03
2022-11-07T20:54:14.100Z,99982.00
2022-11-07T20:56:42.658Z,99991.91
2022-11-07T20:59:09.821Z,99977.53
2022-11-07T21:01:45.345Z,99983.97
2022-11-07T21:04:16.923Z,99978.69
2022-11-07T21:06:43.828Z,99980.66
2022-11-07T21:09:10.943Z,99983.16
2022-11-07T21:11:46.981Z,99987.13
2022-11-07T21:14:13.604Z,99972.75
2022-11-07T21:16:40.189Z,99977.53
2022-11-07T21:19:06.989Z,99971.09
2022-11-07T21:21:39.238Z,99985.63
2022-11-07T21:24:06.033Z,99973.56
2022-11-07T21:26:34.226Z,99966.78
2022-11-07T21:29:01.335Z,99969.59
2022-11-07T21:31:29.915Z,99963.97
2022-11-07T21:33:56.818Z,99955.91
2022-11-07T21:36:25.478Z,99959.53
2022-11-07T21:38:53.813Z,99939.88
2022-11-07T21:41:20.548Z,99935.72
2022-11-07T21:43:47.326Z,99943.34
2022-11-07T21:46:15.414Z,99934.91
2022-11-07T21:48:42.529Z,99938.06
2022-11-07T21:51:13.504Z,99931.94
2022-11-07T21:53:40.612Z,99933.78
2022-11-07T21:56:09.076Z,99936.09
2022-11-07T21:58:35.983Z,99926.88
2022-11-07T22:01:03.934Z,99928.16
2022-11-07T22:03:58.736Z,99924.22
2022-11-07T22:06:21.183Z,99927.03
2022-11-07T22:08:49.437Z,99914.97
2022-11-07T22:11:17.387Z,99912.97
2022-11-07T22:13:44.761Z,99920.56
2022-11-07T22:16:15.969Z,99916.13
2022-11-07T22:18:43.296Z,99914.97
2022-11-07T22:21:12.168Z,99914.13
2022-11-07T22:23:39.422Z,99916.13
2022-11-07T22:26:08.474Z,99900.41
2022-11-07T22:28:35.578Z,99896.78
2022-11-07T22:31:09.940Z,99898.44
2022-11-07T22:33:37.209Z,99892.81
2022-11-07T22:36:05.009Z,99886.88
2022-11-07T22:38:33.286Z,99886.69
2022-11-07T22:41:00.393Z,99874.78
2022-11-07T22:43:27.509Z,99876.09
2022-11-07T22:45:54.657Z,99866.16
2022-11-07T22:48:21.955Z,99860.72
2022-11-07T22:50:48.795Z,99859.22
2022-11-07T22:53:16.127Z,99855.72
2022-11-07T22:55:43.261Z,99841.34
2022-11-07T22:58:10.237Z,99840.66
2022-11-07T23:00:37.740Z,99842.78
2022-11-07T23:03:04.980Z,99827.25
2022-11-07T23:05:31.596Z,99836.16
2022-11-07T23:07:58.521Z,99824.56
2022-11-07T23:10:25.512Z,99826.69
2022-11-07T23:12:53.872Z,99821.91
2022-11-07T23:15:20.781Z,99811.97
2022-11-07T23:17:47.726Z,99818.88
2022-11-07T23:20:34.717Z,99817.72
2022-11-07T23:23:03.997Z,99811.78
2022-11-07T23:25:30.987Z,99813.41
2022-11-07T23:27:58.103Z,99828.28
2022-11-07T23:30:25.100Z,99796.22
2022-11-07T23:32:51.994Z,99786.63
2022-11-07T23:35:18.935Z,99795.06
2022-11-07T23:37:45.892Z,99771.41
2022-11-07T23:40:13.122Z,99775.84
2022-11-07T23:42:40.122Z,99779.47
2022-11-07T23:45:25.799Z,99757.81
2022-11-07T23:48:10.986Z,99762.28
2022-11-07T23:50:56.233Z,99758.63
2022-11-07T23:53:41.510Z,99759.13
2022-11-07T23:56:08.809Z,99764.75
2022-11-07T23:58:54.141Z,99758.31
